Time;durP1;ratioP1;P1;durP2;ratioP2;P2;SDS_P1;SDS_P2;PMS_P1;PMS_P2;Temp;Humidity;BMP_temperature;BMP_pressure;BME280_temperature;BME280_humidity;BME280_pressure;Samples;Min_cycle;Max_cycle;Signal;HPM_P1;HPM_P2
2023/03/11 00:01:29;;;;;;;38.30;22.10;;;;;;;8.18;94.90;97826.83;105212;1263;96688;-75
2023/03/11 00:04:15;;;;;;;42.90;23.20;;;;;;;8.16;94.68;97823.42;105066;1263;100045;-77
2023/03/11 00:07:01;;;;;;;40.50;22.30;;;;;;;8.10;94.64;97824.44;105077;1263;100740;-76
2023/03/11 00:09:46;;;;;;;39.30;21.90;;;;;;;8.06;94.65;97822.92;105034;1263;97720;-78
2023/03/11 00:12:32;;;;;;;40.10;21.30;;;;;;;8.02;94.58;97823.95;105028;1260;96648;-77
2023/03/11 00:15:18;;;;;;;36.20;22.40;;;;;;;7.99;94.40;97822.41;105159;1261;96533;-78
2023/03/11 00:18:04;;;;;;;41.40;20.80;;;;;;;7.97;94.41;97820.17;105602;1261;100017;-77
2023/03/11 00:20:50;;;;;;;43.00;22.90;;;;;;;7.94;94.37;97821.51;105159;1260;99088;-77
2023/03/11 00:23:36;;;;;;;39.70;21.60;;;;;;;7.92;94.22;97818.65;105075;1260;97839;-77
2023/03/11 00:26:21;;;;;;;39.50;22.50;;;;;;;7.88;94.15;97816.33;104977;1260;96617;-77
2023/03/11 00:29:07;;;;;;;39.50;22.00;;;;;;;7.86;94.25;97816.91;105205;1263;96622;-77
2023/03/11 00:31:52;;;;;;;46.10;22.20;;;;;;;7.83;94.28;97818.41;105183;1266;100025;-77
2023/03/11 00:34:38;;;;;;;40.30;22.30;;;;;;;7.80;94.09;97818.14;105104;1264;99056;-77
2023/03/11 00:37:23;;;;;;;36.30;21.00;;;;;;;7.78;94.05;97817.69;104944;1260;98951;-76
2023/03/11 00:40:17;;;;;;;33.60;19.80;;;;;;;7.76;94.00;97812.73;105079;1264;97543;-77
2023/03/11 00:43:03;;;;;;;39.30;20.50;;;;;;;7.73;94.09;97809.59;105173;1264;97124;-76
2023/03/11 00:45:48;;;;;;;35.70;20.00;;;;;;;7.69;93.99;97809.67;105027;1264;101237;-76
2023/03/11 00:48:34;;;;;;;32.40;19.70;;;;;;;7.65;93.63;97804.24;105128;1263;99052;-77
2023/03/11 00:51:19;;;;;;;38.20;20.20;;;;;;;7.59;93.52;97798.38;105136;1270;99424;-77
2023/03/11 00:54:05;;;;;;;36.00;19.50;;;;;;;7.55;93.40;97797.06;104994;1260;96677;-77
2023/03/11 00:56:51;;;;;;;34.80;18.60;;;;;;;7.51;93.53;97794.74;105069;1262;97956;-77
2023/03/11 00:59:36;;;;;;;34.50;19.50;;;;;;;7.47;93.61;97790.95;105031;1264;99983;-75
2023/03/11 01:02:22;;;;;;;35.10;18.40;;;;;;;7.43;93.56;97788.73;105252;1264;100105;-77
2023/03/11 01:05:09;;;;;;;31.10;17.30;;;;;;;7.40;93.67;97786.27;105113;1265;97561;-77
2023/03/11 01:07:54;;;;;;;34.20;17.10;;;;;;;7.39;93.58;97783.89;105101;1260;96591;-78
2023/03/11 01:10:39;;;;;;;28.90;16.90;;;;;;;7.37;93.39;97784.96;105148;1263;97119;-77
2023/03/11 01:13:27;;;;;;;32.40;17.00;;;;;;;7.36;93.61;97786.75;105036;1263;100006;-77
2023/03/11 01:16:13;;;;;;;33.00;16.50;;;;;;;7.34;93.62;97787.10;105651;1260;101036;-77
2023/03/11 01:18:59;;;;;;;26.50;14.40;;;;;;;7.33;93.65;97784.95;104969;1260;97713;-76
2023/03/11 01:21:45;;;;;;;29.70;16.80;;;;;;;7.32;93.65;97780.60;105233;1264;96594;-77
2023/03/11 01:24:31;;;;;;;30.00;15.60;;;;;;;7.29;93.42;97781.17;105156;1265;97133;-77
2023/03/11 01:27:16;;;;;;;27.90;15.70;;;;;;;7.26;93.40;97782.92;105125;1264;100033;-76
2023/03/11 01:30:01;;;;;;;26.80;15.10;;;;;;;7.25;93.29;97785.72;105140;1263;100179;-77
2023/03/11 01:32:47;;;;;;;25.50;15.10;;;;;;;7.22;93.31;97786.56;105012;1261;97785;-77
2023/03/11 01:35:34;;;;;;;25.10;14.20;;;;;;;7.19;93.07;97784.20;104984;1260;96638;-76
2023/03/11 01:38:20;;;;;;;26.30;14.20;;;;;;;7.14;92.93;97785.33;104963;1265;97540;-75
2023/03/11 01:41:06;;;;;;;28.30;14.20;;;;;;;7.09;93.02;97781.11;105095;1261;99996;-77
2023/03/11 01:43:56;;;;;;;25.10;13.70;;;;;;;7.04;92.71;97782.23;105196;1260;99138;-77
2023/03/11 01:46:51;;;;;;;25.10;14.10;;;;;;;6.96;92.75;97779.17;105013;1260;98850;-78
2023/03/11 01:49:42;;;;;;;23.10;12.80;;;;;;;6.91;93.02;97776.89;105000;1264;97120;-76
2023/03/11 01:52:28;;;;;;;25.00;13.10;;;;;;;6.88;93.22;97777.84;104976;1264;96550;-77
2023/03/11 01:55:16;;;;;;;19.40;11.80;;;;;;;6.86;93.09;97781.30;105217;1261;100030;-78
2023/03/11 01:58:06;;;;;;;20.90;11.80;;;;;;;6.84;92.69;97781.02;105147;1261;100311;-78
2023/03/11 02:00:54;;;;;;;24.60;12.50;;;;;;;6.82;92.67;97779.23;105263;1266;99911;-77
2023/03/11 02:03:41;;;;;;;18.30;10.60;;;;;;;6.79;92.76;97777.95;105276;1264;97010;-77
2023/03/11 02:06:30;;;;;;;20.10;10.70;;;;;;;6.77;92.67;97772.63;105147;1261;97142;-76
2023/03/11 02:09:16;;;;;;;19.50;9.80;;;;;;;6.75;92.66;97772.15;104925;1260;100952;-77
2023/03/11 02:12:03;;;;;;;19.50;11.10;;;;;;;6.73;92.74;97768.86;105065;1264;99195;-76
2023/03/11 02:14:52;;;;;;;19.20;10.10;;;;;;;6.70;92.60;97764.59;104993;1263;98975;-74
2023/03/11 02:17:41;;;;;;;19.30;10.80;;;;;;;6.64;92.40;97757.64;105147;1263;96749;-77
2023/03/11 02:20:46;;;;;;;19.30;11.30;;;;;;;6.58;92.30;97755.58;105041;1261;97153;-77
2023/03/11 02:23:46;;;;;;;20.20;12.20;;;;;;;6.51;92.41;97754.13;105093;1264;100030;-77
2023/03/11 02:26:39;;;;;;;24.70;12.50;;;;;;;6.49;92.57;97759.77;104996;1262;101025;-76
2023/03/11 02:29:28;;;;;;;22.40;12.50;;;;;;;6.48;92.76;97756.02;105031;1260;97719;-79
2023/03/11 02:32:15;;;;;;;22.10;13.00;;;;;;;6.47;93.37;97756.86;105075;1263;97861;-77
2023/03/11 02:35:03;;;;;;;24.60;13.80;;;;;;;6.46;93.63;97756.63;105029;1260;98254;-77
2023/03/11 02:37:51;;;;;;;27.60;14.00;;;;;;;6.47;94.06;97758.25;105063;1263;99996;-76
2023/03/11 02:40:52;;;;;;;28.10;14.80;;;;;;;6.50;94.19;97759.30;105032;1263;99177;-78
2023/03/11 02:43:43;;;;;;;22.90;12.50;;;;;;;6.49;94.18;97759.88;104928;1267;98991;-75
2023/03/11 02:46:29;;;;;;;28.10;14.50;;;;;;;6.50;94.60;97757.98;105038;1260;96528;-76
2023/03/11 02:49:15;;;;;;;22.70;13.00;;;;;;;6.52;94.72;97755.21;106183;1263;97069;-76
2023/03/11 02:52:02;;;;;;;21.20;11.90;;;;;;;6.53;94.76;97754.71;105018;1260;100573;-77
2023/03/11 02:54:48;;;;;;;24.10;12.70;;;;;;;6.56;95.09;97752.61;105147;1260;99110;-75
2023/03/11 02:57:33;;;;;;;20.80;11.90;;;;;;;6.58;95.12;97754.98;105003;1265;98958;-76
2023/03/11 03:00:20;;;;;;;17.90;10.70;;;;;;;6.60;95.32;97755.20;104998;1260;96655;-76
2023/03/11 03:03:19;;;;;;;23.90;13.00;;;;;;;6.63;95.33;97751.33;105096;1260;97126;-77
2023/03/11 03:06:06;;;;;;;20.00;10.50;;;;;;;6.64;95.56;97748.27;105053;1259;100637;-76
2023/03/11 03:08:51;;;;;;;21.00;11.20;;;;;;;6.66;95.60;97746.31;104909;1260;99960;-75
2023/03/11 03:11:37;;;;;;;22.40;11.00;;;;;;;6.69;95.53;97746.27;105092;1260;97815;-75
2023/03/11 03:14:22;;;;;;;18.80;10.70;;;;;;;6.70;95.49;97747.27;104989;1260;96623;-78
2023/03/11 03:17:08;;;;;;;18.80;9.90;;;;;;;6.71;95.52;97751.20;104972;1265;97200;-76
2023/03/11 03:19:53;;;;;;;19.10;9.90;;;;;;;6.72;95.43;97752.83;105030;1263;101320;-76
2023/03/11 03:22:41;;;;;;;19.40;9.80;;;;;;;6.73;95.61;97754.06;105089;1261;99186;-76
2023/03/11 03:25:27;;;;;;;17.50;9.70;;;;;;;6.73;95.54;97750.08;105004;1263;98994;-75
2023/03/11 03:28:14;;;;;;;16.40;8.50;;;;;;;6.74;95.58;97748.86;104974;1261;96620;-75
2023/03/11 03:31:11;;;;;;;13.10;8.00;;;;;;;6.74;95.40;97745.63;105145;1260;95975;-76
2023/03/11 03:33:57;;;;;;;15.20;8.00;;;;;;;6.73;95.43;97741.40;105004;1267;100018;-75
2023/03/11 03:36:43;;;;;;;13.90;7.80;;;;;;;6.73;95.58;97741.56;105050;1260;99146;-76
2023/03/11 03:39:31;;;;;;;14.90;7.90;;;;;;;6.73;95.66;97739.44;105012;1263;97732;-76
2023/03/11 03:42:18;;;;;;;13.50;7.60;;;;;;;6.75;95.78;97739.31;104977;1264;96765;-76
2023/03/11 03:45:06;;;;;;;10.50;7.10;;;;;;;6.77;95.79;97731.65;104944;1259;97223;-76
2023/03/11 03:47:52;;;;;;;15.30;8.00;;;;;;;6.80;95.76;97732.20;105127;1264;99968;-75
2023/03/11 03:50:39;;;;;;;12.30;7.50;;;;;;;6.81;95.65;97734.80;104978;1265;101327;-76
2023/03/11 03:53:25;;;;;;;12.10;6.70;;;;;;;6.83;95.56;97734.02;105048;1263;97788;-76
2023/03/11 03:56:14;;;;;;;12.80;7.00;;;;;;;6.82;95.48;97731.23;105018;1260;96684;-76
2023/03/11 03:59:00;;;;;;;11.50;6.50;;;;;;;6.82;95.80;97734.60;104950;1264;96753;-76
2023/03/11 04:01:49;;;;;;;16.30;7.70;;;;;;;6.84;95.85;97736.48;105333;1262;101269;-77
2023/03/11 04:04:36;;;;;;;13.00;7.40;;;;;;;6.85;95.74;97735.73;105074;1259;99715;-76
2023/03/11 04:07:21;;;;;;;13.20;7.20;;;;;;;6.86;95.89;97738.41;105067;1259;98880;-76
2023/03/11 04:10:08;;;;;;;16.80;8.20;;;;;;;6.86;95.78;97737.97;104961;1259;96593;-76
2023/03/11 04:12:53;;;;;;;15.40;7.70;;;;;;;6.87;95.76;97735.70;105068;1263;97233;-78
2023/03/11 04:15:39;;;;;;;10.80;6.70;;;;;;;6.88;95.63;97731.70;104981;1259;99996;-75
2023/03/11 04:18:25;;;;;;;13.50;7.20;;;;;;;6.90;95.71;97731.67;104949;1262;100863;-75
2023/03/11 04:21:10;;;;;;;12.80;6.60;;;;;;;6.89;95.84;97730.27;105144;1260;98975;-77
2023/03/11 04:23:56;;;;;;;14.00;6.60;;;;;;;6.89;95.93;97732.19;104894;1267;96625;-78
2023/03/11 04:26:46;;;;;;;11.40;6.70;;;;;;;6.90;95.85;97733.48;105151;1264;96505;-76
2023/03/11 04:29:34;;;;;;;9.80;6.30;;;;;;;6.89;95.92;97730.71;104946;1261;99985;-75
2023/03/11 04:32:21;;;;;;;12.20;6.80;;;;;;;6.90;95.93;97734.55;105089;1263;100329;-76
2023/03/11 04:35:08;;;;;;;9.50;5.80;;;;;;;6.91;95.84;97733.73;104935;1259;97740;-76
2023/03/11 04:37:53;;;;;;;12.60;6.30;;;;;;;6.92;95.93;97730.20;105059;1261;96621;-77
2023/03/11 04:40:39;;;;;;;11.90;6.00;;;;;;;6.93;96.04;97730.21;104949;1260;97265;-76
2023/03/11 04:43:25;;;;;;;10.20;6.70;;;;;;;6.93;96.13;97734.30;104978;1263;99973;-75
2023/03/11 04:46:10;;;;;;;10.90;6.00;;;;;;;6.93;95.86;97731.90;104962;1264;99701;-76
2023/03/11 04:48:57;;;;;;;10.90;6.10;;;;;;;6.91;95.80;97732.15;105047;1275;97853;-75
2023/03/11 04:51:43;;;;;;;12.60;6.30;;;;;;;6.91;95.96;97728.19;105068;1263;96556;-75
2023/03/11 04:54:29;;;;;;;10.00;6.10;;;;;;;6.91;96.07;97727.92;105049;1263;97155;-75
2023/03/11 04:57:15;;;;;;;10.10;6.40;;;;;;;6.92;96.22;97730.08;105074;1263;101821;-77
2023/03/11 05:00:08;;;;;;;11.70;5.80;;;;;;;6.93;96.22;97727.86;104950;1263;100332;-76
2023/03/11 05:02:55;;;;;;;9.50;5.90;;;;;;;6.93;96.37;97728.83;105144;1265;99031;-75
2023/03/11 05:05:41;;;;;;;9.20;5.40;;;;;;;6.93;96.28;97729.35;105330;1260;97865;-75
2023/03/11 05:08:27;;;;;;;11.20;5.90;;;;;;;6.94;96.31;97722.25;105054;1263;97119;-77
2023/03/11 05:11:13;;;;;;;8.20;5.40;;;;;;;6.96;96.28;97725.23;104993;1259;101179;-76
2023/03/11 05:14:00;;;;;;;10.50;5.70;;;;;;;6.96;96.37;97724.85;105069;1260;100139;-76
2023/03/11 05:16:46;;;;;;;9.80;5.90;;;;;;;6.95;96.32;97725.02;105039;1259;98986;-76
2023/03/11 05:19:33;;;;;;;8.70;5.50;;;;;;;6.95;96.23;97724.01;104940;1264;96530;-76
2023/03/11 05:22:22;;;;;;;7.90;5.20;;;;;;;6.95;96.17;97727.33;105152;1264;97178;-76
2023/03/11 05:25:08;;;;;;;10.00;6.10;;;;;;;6.94;96.34;97727.18;105139;1265;100934;-76
2023/03/11 05:27:55;;;;;;;8.80;5.80;;;;;;;6.93;96.21;97728.25;105122;1260;100328;-76
2023/03/11 05:30:41;;;;;;;11.10;6.30;;;;;;;6.93;96.38;97734.77;105079;1259;98473;-76
2023/03/11 05:33:33;;;;;;;12.80;6.60;;;;;;;6.93;96.41;97735.64;105015;1264;97063;-76
2023/03/11 05:36:19;;;;;;;9.40;5.40;;;;;;;6.92;96.67;97734.45;105049;1263;98308;-77
2023/03/11 05:39:05;;;;;;;9.50;5.50;;;;;;;6.92;96.62;97734.65;105035;1264;101228;-75
2023/03/11 05:41:52;;;;;;;7.00;5.00;;;;;;;6.91;96.75;97734.95;105060;1265;99100;-77
2023/03/11 05:44:38;;;;;;;11.00;5.90;;;;;;;6.91;96.76;97733.08;105119;1262;99001;-77
2023/03/11 05:47:24;;;;;;;9.50;5.60;;;;;;;6.91;96.97;97735.90;105122;1261;97163;-78
2023/03/11 05:50:11;;;;;;;9.60;5.50;;;;;;;6.91;96.94;97738.73;105184;1259;97193;-76
2023/03/11 05:52:57;;;;;;;8.40;6.10;;;;;;;6.91;97.07;97735.42;105116;1259;101231;-75
2023/03/11 05:55:44;;;;;;;10.10;5.80;;;;;;;6.91;97.26;97733.04;105106;1264;99102;-77
2023/03/11 05:58:31;;;;;;;12.00;5.70;;;;;;;6.93;97.33;97735.30;104968;1259;98468;-77
2023/03/11 06:01:18;;;;;;;11.60;6.40;;;;;;;6.94;97.28;97733.94;105140;1261;96659;-76
2023/03/11 06:04:04;;;;;;;10.10;6.50;;;;;;;6.95;97.34;97737.59;104953;1259;96528;-77
2023/03/11 06:06:50;;;;;;;9.70;6.00;;;;;;;6.97;97.41;97738.21;104947;1265;101262;-77
2023/03/11 06:09:37;;;;;;;14.00;6.50;;;;;;;6.98;97.63;97742.09;105068;1263;100326;-75
2023/03/11 06:12:24;;;;;;;12.40;6.80;;;;;;;6.99;97.55;97744.02;105011;1264;97721;-75
2023/03/11 06:15:27;;;;;;;11.40;6.20;;;;;;;7.02;97.79;97748.48;105149;1260;97136;-76
2023/03/11 06:18:13;;;;;;;10.50;6.20;;;;;;;7.04;98.25;97754.71;105080;1264;97246;-76
2023/03/11 06:21:01;;;;;;;9.50;5.90;;;;;;;7.07;98.33;97757.11;104996;1259;100312;-76
2023/03/11 06:23:47;;;;;;;9.70;6.30;;;;;;;7.10;98.77;97757.98;105919;1259;99081;-77
2023/03/11 06:26:33;;;;;;;9.50;6.30;;;;;;;7.12;99.01;97762.87;104993;1259;97759;-76
2023/03/11 06:29:20;;;;;;;10.30;6.50;;;;;;;7.15;99.29;97762.29;105136;1259;96683;-79
2023/03/11 06:32:06;;;;;;;10.90;7.80;;;;;;;7.16;99.62;97766.89;105224;1259;97154;-77
2023/03/11 06:34:52;;;;;;;10.80;7.40;;;;;;;7.16;99.91;97767.64;105128;1259;100591;-77
2023/03/11 06:37:38;;;;;;;10.40;7.90;;;;;;;7.17;99.99;97766.96;105011;1259;99068;-77
2023/03/11 06:40:24;;;;;;;12.60;8.80;;;;;;;7.16;100.00;97773.45;105008;1265;97701;-77
2023/03/11 06:43:10;;;;;;;11.90;9.00;;;;;;;7.16;100.00;97772.55;105058;1259;97405;-78
2023/03/11 06:45:59;;;;;;;18.90;10.50;;;;;;;7.17;100.00;97771.45;105079;1260;97173;-78
2023/03/11 06:48:46;;;;;;;13.10;9.40;;;;;;;7.18;100.00;97770.30;105139;1261;101336;-78
2023/03/11 06:51:33;;;;;;;12.90;9.30;;;;;;;7.19;100.00;97771.42;105672;1262;100831;-77
2023/03/11 06:54:19;;;;;;;13.10;9.50;;;;;;;7.20;100.00;97773.00;104871;1264;97809;-76
2023/03/11 06:57:09;;;;;;;13.70;9.90;;;;;;;7.22;100.00;97776.13;105101;1264;97424;-75
2023/03/11 06:59:55;;;;;;;13.60;10.30;;;;;;;7.24;100.00;97776.83;104950;1264;97140;-77
2023/03/11 07:02:41;;;;;;;12.80;9.70;;;;;;;7.25;100.00;97774.88;105058;1259;101302;-75
2023/03/11 07:05:27;;;;;;;13.50;10.30;;;;;;;7.27;100.00;97776.98;104973;1264;100783;-76
2023/03/11 07:08:16;;;;;;;12.40;9.50;;;;;;;7.30;100.00;97778.34;104969;1265;99244;-76
2023/03/11 07:11:15;;;;;;;14.70;11.10;;;;;;;7.31;100.00;97780.44;105173;1260;97825;-76
2023/03/11 07:14:00;;;;;;;17.50;11.60;;;;;;;7.33;100.00;97783.89;105144;1259;96680;-77
2023/03/11 07:16:48;;;;;;;14.00;11.50;;;;;;;7.35;100.00;97791.27;105054;1260;100675;-76
2023/03/11 07:19:43;;;;;;;17.30;12.00;;;;;;;7.35;100.00;97795.58;105022;1259;99898;-77
2023/03/11 07:22:38;;;;;;;14.00;10.50;;;;;;;7.33;100.00;97805.35;105446;1264;97724;-83
2023/03/11 07:25:28;;;;;;;14.00;10.10;;;;;;;7.32;100.00;97810.59;105570;1259;96649;-75
2023/03/11 07:28:14;;;;;;;14.40;10.00;;;;;;;7.28;100.00;97816.58;105127;1259;97877;-75
2023/03/11 07:31:05;;;;;;;14.60;9.80;;;;;;;7.26;100.00;97817.60;105116;1259;101368;-85
2023/03/11 07:33:51;;;;;;;;;;;;;;;7.26;100.00;97824.62;106609;1259;100316;-87
2023/03/11 07:36:41;;;;;;;13.40;9.20;;;;;;;7.26;100.00;97827.17;106258;1260;99346;-90
2023/03/11 07:39:27;;;;;;;11.50;8.70;;;;;;;7.24;100.00;97828.14;106328;1259;97874;-90
2023/03/11 07:42:16;;;;;;;12.70;9.60;;;;;;;7.24;100.00;97829.57;106445;1260;96546;-84
2023/03/11 07:45:02;;;;;;;13.70;10.00;;;;;;;7.24;100.00;97830.02;106042;1259;99975;-87
2023/03/11 07:47:48;;;;;;;13.60;10.10;;;;;;;7.23;100.00;97828.66;106170;1259;100285;-88
2023/03/11 07:50:34;;;;;;;14.60;11.10;;;;;;;7.23;100.00;97833.65;105944;1266;98995;-79
2023/03/11 07:53:19;;;;;;;14.50;11.60;;;;;;;7.23;100.00;97837.82;105562;1261;96624;-79
2023/03/11 07:56:06;;;;;;;16.20;12.00;;;;;;;7.24;100.00;97836.30;105577;1260;97246;-78
2023/03/11 07:58:52;;;;;;;15.00;11.60;;;;;;;7.24;100.00;97839.73;105703;1259;99962;-78
2023/03/11 08:01:40;;;;;;;15.40;12.20;;;;;;;7.23;100.00;97843.39;106787;1259;100440;-79
2023/03/11 08:04:25;;;;;;;17.30;11.40;;;;;;;7.21;100.00;97843.71;105951;1259;97894;-88
2023/03/11 08:07:11;;;;;;;15.50;11.70;;;;;;;7.20;100.00;97839.13;106384;1259;96727;-77
2023/03/11 08:09:56;;;;;;;15.90;11.80;;;;;;;7.20;100.00;97843.01;105253;1259;97131;-77
2023/03/11 08:12:42;;;;;;;14.90;11.80;;;;;;;7.18;100.00;97849.13;105160;1263;101224;-78
2023/03/11 08:15:28;;;;;;;13.80;11.30;;;;;;;7.17;100.00;97850.25;105251;1259;99082;-77
2023/03/11 08:18:13;;;;;;;16.30;11.80;;;;;;;7.16;100.00;97856.77;105167;1262;97824;-76
2023/03/11 08:21:11;;;;;;;20.10;13.80;;;;;;;7.13;100.00;97864.00;105158;1263;97892;-77
2023/03/11 08:23:59;;;;;;;31.50;19.30;;;;;;;7.05;100.00;97871.79;105112;1263;96583;-77
2023/03/11 08:26:45;;;;;;;31.70;20.00;;;;;;;6.93;100.00;97883.26;105246;1259;101977;-77
2023/03/11 08:29:43;;;;;;;32.00;19.80;;;;;;;6.79;100.00;97895.63;105612;1259;99135;-90
2023/03/11 08:32:30;;;;;;;33.00;19.40;;;;;;;6.67;100.00;97899.00;105297;1267;97744;-76
2023/03/11 08:35:16;;;;;;;30.40;19.40;;;;;;;6.56;100.00;97903.98;105713;1259;96506;-88
2023/03/11 08:38:02;;;;;;;34.00;20.80;;;;;;;6.48;100.00;97908.45;106415;1259;96748;-89
2023/03/11 08:40:49;;;;;;;36.90;22.30;;;;;;;6.42;100.00;97918.44;106154;1259;101906;-79
2023/03/11 08:43:34;;;;;;;33.80;19.70;;;;;;;6.32;100.00;97925.08;105381;1260;99104;-83
2023/03/11 08:46:23;;;;;;;34.80;19.60;;;;;;;6.20;100.00;97935.97;106064;1264;98987;-76
2023/03/11 08:49:09;;;;;;;32.20;20.40;;;;;;;6.07;99.96;97948.94;105412;1259;96611;-83
2023/03/11 08:51:55;;;;;;;29.70;19.30;;;;;;;5.88;99.64;97958.73;105958;1260;97153;-85
2023/03/11 08:54:41;;;;;;;33.80;20.10;;;;;;;5.69;99.35;97973.39;106033;1263;101797;-80
2023/03/11 08:57:27;;;;;;;29.80;18.00;;;;;;;5.51;98.96;97983.94;105122;1263;100335;-76
2023/03/11 09:00:13;;;;;;;30.50;18.50;;;;;;;5.34;98.82;97992.89;105097;1260;98653;-77
2023/03/11 09:02:58;;;;;;;25.80;15.50;;;;;;;5.17;98.15;98003.36;105238;1262;96554;-76
2023/03/11 09:05:44;;;;;;;25.40;15.70;;;;;;;4.95;97.59;98008.29;105269;1263;98168;-76
2023/03/11 09:08:30;;;;;;;20.60;12.80;;;;;;;4.83;97.78;98018.48;106312;1259;100544;-85
2023/03/11 09:11:17;;;;;;;20.10;12.30;;;;;;;4.77;97.84;98028.84;106019;1265;100396;-83
2023/03/11 09:14:04;;;;;;;17.70;11.30;;;;;;;4.69;97.63;98034.46;106443;1265;98992;-84
2023/03/11 09:16:49;;;;;;;14.70;9.50;;;;;;;4.60;97.54;98045.89;105912;1259;96527;-80
2023/03/11 09:19:35;;;;;;;10.50;7.70;;;;;;;4.47;97.02;98061.60;105974;1264;98278;-82
2023/03/11 09:22:21;;;;;;;10.60;7.70;;;;;;;4.33;97.05;98067.08;106076;1259;99981;-81
2023/03/11 09:25:08;;;;;;;9.70;6.50;;;;;;;4.22;96.94;98075.74;106032;1260;100082;-81
2023/03/11 09:27:54;;;;;;;9.60;7.50;;;;;;;4.11;96.98;98081.39;105487;1265;98986;-78
2023/03/11 09:30:40;;;;;;;8.90;7.30;;;;;;;4.03;97.12;98089.06;106379;1263;96612;-86
2023/03/11 09:33:26;;;;;;;8.70;7.20;;;;;;;3.95;97.66;98095.23;106057;1259;96618;-83
2023/03/11 09:36:18;;;;;;;10.70;7.50;;;;;;;3.89;97.73;98098.20;106222;1264;100053;-86
2023/03/11 09:39:04;;;;;;;8.80;6.90;;;;;;;3.77;97.49;98107.14;106110;1265;100297;-83
2023/03/11 09:41:56;;;;;;;9.00;6.60;;;;;;;3.62;97.18;98115.81;106164;1260;98732;-83
2023/03/11 09:44:49;;;;;;;8.70;6.50;;;;;;;3.47;97.19;98122.92;105974;1265;96562;-83
2023/03/11 09:47:58;;;;;;;8.80;6.40;;;;;;;3.36;97.47;98129.34;106145;1264;95248;-83
2023/03/11 09:50:56;;;;;;;8.30;6.40;;;;;;;3.26;97.53;98138.63;106291;1259;101187;-86
2023/03/11 09:53:44;;;;;;;8.60;6.50;;;;;;;3.20;98.16;98147.01;106387;1264;99819;-87
2023/03/11 09:56:33;;;;;;;9.70;6.50;;;;;;;3.17;98.24;98155.63;106335;1259;99404;-86
2023/03/11 09:59:28;;;;;;;9.30;7.70;;;;;;;3.11;98.07;98162.48;106289;1270;96536;-85
2023/03/11 10:02:18;;;;;;;7.20;5.80;;;;;;;3.02;98.08;98169.36;106106;1265;97140;-85
2023/03/11 10:05:20;;;;;;;7.50;6.20;;;;;;;2.92;98.18;98179.58;105962;1260;101814;-83
2023/03/11 10:08:28;;;;;;;7.80;6.00;;;;;;;2.86;98.33;98186.30;106213;1259;99132;-82
2023/03/11 10:11:30;;;;;;;8.10;6.20;;;;;;;2.81;98.50;98194.93;106060;1265;98491;-84
2023/03/11 10:14:41;;;;;;;7.80;6.50;;;;;;;2.76;98.60;98206.59;106092;1260;96605;-88
2023/03/11 10:17:32;;;;;;;6.40;5.30;;;;;;;2.76;98.79;98211.96;105168;1259;96622;-74
2023/03/11 10:20:18;;;;;;;7.00;6.30;;;;;;;2.70;98.49;98216.06;105039;1259;101200;-76
2023/03/11 10:23:18;;;;;;;6.20;5.60;;;;;;;2.65;98.40;98223.52;105055;1263;99064;-76
2023/03/11 10:26:22;;;;;;;7.70;6.50;;;;;;;2.60;98.49;98235.52;105077;1259;98501;-75
2023/03/11 10:29:17;;;;;;;6.90;5.00;;;;;;;2.55;98.51;98243.09;105080;1264;97783;-74
2023/03/11 10:32:19;;;;;;;5.70;5.10;;;;;;;2.46;97.85;98251.42;105897;1259;97141;-80
2023/03/11 10:35:21;;;;;;;5.40;4.20;;;;;;;2.37;97.67;98257.96;105651;1259;100000;-76
2023/03/11 10:38:22;;;;;;;6.40;5.60;;;;;;;2.30;97.65;98271.19;105251;1265;99075;-86
2023/03/11 10:41:30;;;;;;;;;;;;;;;2.28;98.06;98279.58;106174;1265;97570;-88
2023/03/11 10:44:20;;;;;;;7.00;4.80;;;;;;;2.26;98.41;98282.83;106127;1263;96619;-76
2023/03/11 10:47:16;;;;;;;5.60;4.80;;;;;;;2.23;98.64;98290.56;106258;1264;96673;-82
2023/03/11 10:50:02;;;;;;;6.60;5.60;;;;;;;2.22;98.43;98294.65;105865;1259;101297;-80
2023/03/11 10:53:24;;;;;;;6.60;5.70;;;;;;;2.17;97.92;98299.04;106177;1263;99072;-89
2023/03/11 10:56:40;;;;;;;6.80;5.40;;;;;;;2.12;97.59;98300.52;106122;1265;98994;-76
2023/03/11 10:59:32;;;;;;;5.30;4.80;;;;;;;2.08;97.49;98311.75;105419;1263;96656;-79
2023/03/11 11:02:39;;;;;;;7.30;5.60;;;;;;;2.08;97.76;98313.62;106444;1265;96489;-89
2023/03/11 11:05:31;;;;;;;6.30;4.90;;;;;;;2.04;97.41;98316.66;106026;1262;100002;-86
2023/03/11 11:08:19;;;;;;;7.50;5.80;;;;;;;2.00;97.36;98318.85;106158;1262;99231;-87
2023/03/11 11:11:20;;;;;;;6.90;5.60;;;;;;;1.99;97.51;98321.77;105974;1267;97738;-76
2023/03/11 11:14:06;;;;;;;6.60;5.60;;;;;;;2.01;97.75;98329.64;105099;1265;96627;-76
2023/03/11 11:16:52;;;;;;;8.40;5.80;;;;;;;2.05;98.22;98339.95;105130;1265;96586;-81
2023/03/11 11:19:44;;;;;;;8.00;6.20;;;;;;;2.05;97.94;98346.00;106099;1262;101030;-81
2023/03/11 11:22:31;;;;;;;8.70;6.30;;;;;;;2.00;97.91;98353.75;106140;1263;99094;-84
2023/03/11 11:25:27;;;;;;;8.00;6.40;;;;;;;1.94;97.57;98362.82;105848;1265;100008;-79
2023/03/11 11:28:16;;;;;;;11.20;7.10;;;;;;;1.91;97.75;98374.32;105945;1263;95940;-76
2023/03/11 11:31:17;;;;;;;8.30;6.50;;;;;;;1.86;97.44;98382.02;105836;1265;97153;-77
2023/03/11 11:34:05;;;;;;;7.10;6.20;;;;;;;1.78;97.47;98398.73;105041;1265;101792;-77
2023/03/11 11:36:52;;;;;;;10.40;6.30;;;;;;;1.76;97.58;98403.55;105238;1262;100947;-85
2023/03/11 11:39:50;;;;;;;12.80;6.20;;;;;;;1.77;97.89;98410.18;105841;1268;97733;-76
2023/03/11 11:42:43;;;;;;;8.50;6.30;;;;;;;1.77;97.87;98419.90;105153;1264;96536;-76
2023/03/11 11:45:46;;;;;;;8.20;5.80;;;;;;;1.72;97.47;98423.66;105387;1268;97075;-76
2023/03/11 11:48:57;;;;;;;7.80;5.80;;;;;;;1.64;97.59;98429.70;105401;1265;101286;-76
2023/03/11 11:52:04;;;;;;;9.90;6.60;;;;;;;1.55;97.46;98440.91;105055;1262;99106;-75
2023/03/11 11:54:52;;;;;;;11.00;6.80;;;;;;;1.47;97.63;98447.66;104766;1263;97744;-76
2023/03/11 11:57:37;;;;;;;11.20;7.30;;;;;;;1.41;97.72;98452.34;104769;1265;96637;-75
2023/03/11 12:00:33;;;;;;;11.40;7.10;;;;;;;1.38;97.99;98460.42;105141;1265;97071;-78
2023/03/11 12:03:37;;;;;;;9.30;7.40;;;;;;;1.36;98.20;98467.12;105261;1265;100191;-78
2023/03/11 12:06:53;;;;;;;12.70;7.90;;;;;;;1.35;98.25;98475.86;105997;1264;100581;-78
2023/03/11 12:09:54;;;;;;;10.40;7.70;;;;;;;1.34;98.55;98488.48;105229;1262;97785;-78
2023/03/11 12:12:51;;;;;;;10.20;6.80;;;;;;;1.34;98.63;98494.98;105825;1262;97086;-81
2023/03/11 12:15:49;;;;;;;10.10;7.90;;;;;;;1.29;98.26;98504.30;105850;1265;97052;-83
2023/03/11 12:18:41;;;;;;;14.00;8.50;;;;;;;1.25;98.42;98513.89;105619;1262;99996;-80
2023/03/11 12:21:40;;;;;;;11.40;7.60;;;;;;;1.20;98.52;98526.22;105690;1262;99757;-84
2023/03/11 12:24:52;;;;;;;11.50;7.30;;;;;;;1.17;98.53;98532.20;106514;1265;97723;-79
2023/03/11 12:27:43;;;;;;;;;;;;;;;1.10;98.44;98544.35;105678;1262;96726;-87
2023/03/11 12:30:35;;;;;;;10.30;7.40;;;;;;;1.02;98.63;98551.14;106042;1265;97046;-78
2023/03/11 12:33:32;;;;;;;13.40;8.50;;;;;;;0.99;99.02;98556.94;105996;1267;101639;-81
2023/03/11 12:36:28;;;;;;;11.30;7.70;;;;;;;0.99;98.87;98563.59;106094;1261;99070;-83
2023/03/11 12:39:28;;;;;;;10.40;7.00;;;;;;;0.99;98.77;98570.83;106057;1265;97895;-82
2023/03/11 12:42:19;;;;;;;12.20;8.10;;;;;;;0.97;98.81;98578.10;106055;1261;96552;-81
2023/03/11 12:45:47;;;;;;;9.80;7.10;;;;;;;0.94;98.66;98579.52;106023;1265;96371;-85
2023/03/11 12:48:51;;;;;;;11.30;8.20;;;;;;;0.95;98.76;98587.15;105925;1265;100126;-79
2023/03/11 12:51:38;;;;;;;10.20;7.00;;;;;;;0.95;98.77;98598.86;105960;1265;99866;-84
2023/03/11 12:54:33;;;;;;;8.70;6.70;;;;;;;0.99;98.91;98604.88;107218;1262;98987;-84
2023/03/11 12:57:19;;;;;;;9.30;6.60;;;;;;;1.04;99.04;98614.37;105686;1265;96719;-81
2023/03/11 13:00:21;;;;;;;10.20;6.70;;;;;;;1.06;98.85;98628.31;106069;1263;97059;-82
2023/03/11 13:03:24;;;;;;;11.70;8.30;;;;;;;1.05;98.59;98635.39;106085;1262;100048;-82
2023/03/11 13:06:43;;;;;;;10.60;7.50;;;;;;;1.00;98.37;98642.96;105914;1260;99125;-81